VTK7003 UHWW-UNNT
Flight info
| Callsign | VTK7003 |
|---|---|
| Flight time | 5h 43m |
| Altitude | 34000 |
| Route | N0470F340 DOLM2F DOLMA B356 TD B355 HAB L168 IVADA A946 TORMA N992 GU G363 NUKSI A824 LURIN B151 KESED B926 NATIR NATI1K |
| Aircraft | A321/M-VGDW/C |
Departure
| Time | 2026-04-14 03:40 |
|---|---|
| Airport | Vladivostok International Airport (UHWW) |
Arrival
| Time | 2026-04-14 09:24 |
|---|---|
| Airport | Novosibirsk Tolmachevo Airport (UNNT) |
| Time | Latitude | Longitude | Altitude | Speed | Heading |
|---|---|---|---|---|---|
| 2026-04-14 02:37 | 43.39695 | 132.16428 | 70 ft | 0 kts | 151° |
| 2026-04-14 03:27 | 43.39698 | 132.16426 | 60 ft | 3 kts | 152° |
| 2026-04-14 03:27 | 43.39686 | 132.16434 | 64 ft | 0 kts | 332° |
| 2026-04-14 03:31 | 43.39688 | 132.16433 | 63 ft | 1 kts | 332° |
| 2026-04-14 03:31 | 43.39704 | 132.16420 | 64 ft | 4 kts | 330° |
| 2026-04-14 03:31 | 43.39739 | 132.16393 | 66 ft | 7 kts | 329° |
| 2026-04-14 03:31 | 43.39755 | 132.16322 | 70 ft | 10 kts | 253° |
| 2026-04-14 03:32 | 43.39757 | 132.16222 | 63 ft | 12 kts | 308° |
| 2026-04-14 03:32 | 43.39837 | 132.16155 | 67 ft | 13 kts | 331° |
| 2026-04-14 03:32 | 43.39890 | 132.16069 | 67 ft | 14 kts | 271° |
| 2026-04-14 03:32 | 43.39843 | 132.15939 | 68 ft | 17 kts | 239° |
| 2026-04-14 03:33 | 43.39783 | 132.15788 | 67 ft | 18 kts | 243° |
| 2026-04-14 03:33 | 43.39717 | 132.15632 | 62 ft | 19 kts | 240° |
| 2026-04-14 03:33 | 43.39653 | 132.15469 | 67 ft | 20 kts | 241° |
| 2026-04-14 03:33 | 43.39595 | 132.15328 | 64 ft | 18 kts | 240° |
| 2026-04-14 03:34 | 43.39463 | 132.15004 | 61 ft | 21 kts | 240° |
| 2026-04-14 03:34 | 43.39388 | 132.14820 | 61 ft | 24 kts | 240° |
| 2026-04-14 03:34 | 43.39304 | 132.14613 | 68 ft | 24 kts | 240° |
| 2026-04-14 03:35 | 43.39249 | 132.14472 | 66 ft | 17 kts | 241° |
| 2026-04-14 03:35 | 43.39186 | 132.14315 | 67 ft | 21 kts | 240° |
| 2026-04-14 03:35 | 43.39111 | 132.14129 | 68 ft | 22 kts | 241° |
| 2026-04-14 03:35 | 43.39039 | 132.13953 | 65 ft | 23 kts | 241° |
| 2026-04-14 03:36 | 43.38957 | 132.13748 | 68 ft | 23 kts | 241° |
| 2026-04-14 03:36 | 43.38878 | 132.13555 | 69 ft | 25 kts | 242° |
| 2026-04-14 03:36 | 43.38817 | 132.13403 | 60 ft | 14 kts | 241° |
| 2026-04-14 03:36 | 43.38774 | 132.13284 | 62 ft | 14 kts | 252° |
| 2026-04-14 03:37 | 43.38800 | 132.13183 | 68 ft | 8 kts | 322° |
| 2026-04-14 03:37 | 43.38812 | 132.13172 | 66 ft | 0 kts | 327° |
| 2026-04-14 03:37 | 43.38815 | 132.13170 | 67 ft | 2 kts | 328° |
| 2026-04-14 03:37 | 43.38833 | 132.13155 | 61 ft | 5 kts | 330° |
| 2026-04-14 03:38 | 43.38871 | 132.13126 | 67 ft | 8 kts | 331° |
| 2026-04-14 03:38 | 43.38940 | 132.13119 | 60 ft | 13 kts | 33° |
| 2026-04-14 03:38 | 43.38962 | 132.13156 | 64 ft | 0 kts | 57° |
| 2026-04-14 03:39 | 43.38970 | 132.13174 | 66 ft | 9 kts | 59° |
| 2026-04-14 03:39 | 43.39053 | 132.13418 | 63 ft | 60 kts | 60° |
| 2026-04-14 03:40 | 43.39377 | 132.14190 | 62 ft | 123 kts | 61° |
| 2026-04-14 03:40 | 43.39877 | 132.15436 | 71 ft | 173 kts | 64° |
| 2026-04-14 03:40 | 43.40470 | 132.16945 | 536 ft | 177 kts | 63° |
| 2026-04-14 03:40 | 43.41045 | 132.18426 | 1303 ft | 175 kts | 62° |
| 2026-04-14 03:41 | 43.41651 | 132.19873 | 2011 ft | 173 kts | 58° |
| 2026-04-14 03:41 | 43.42323 | 132.21302 | 2337 ft | 184 kts | 58° |
| 2026-04-14 03:41 | 43.43006 | 132.22856 | 2592 ft | 198 kts | 61° |
| 2026-04-14 03:41 | 43.43685 | 132.24578 | 2833 ft | 211 kts | 63° |
| 2026-04-14 03:42 | 43.44367 | 132.26437 | 3084 ft | 227 kts | 64° |
| 2026-04-14 03:42 | 43.45141 | 132.28474 | 3212 ft | 251 kts | 62° |
| 2026-04-14 03:42 | 43.46019 | 132.30617 | 3700 ft | 261 kts | 60° |
| 2026-04-14 03:42 | 43.46928 | 132.32768 | 4408 ft | 265 kts | 60° |
| 2026-04-14 03:43 | 43.47851 | 132.34989 | 5024 ft | 271 kts | 61° |
| 2026-04-14 03:43 | 43.48862 | 132.37221 | 5570 ft | 277 kts | 53° |
| 2026-04-14 03:43 | 43.50209 | 132.39126 | 6187 ft | 279 kts | 35° |
| 2026-04-14 03:43 | 43.51898 | 132.40456 | 6752 ft | 282 kts | 25° |
| 2026-04-14 03:44 | 43.53648 | 132.41710 | 7357 ft | 285 kts | 26° |
| 2026-04-14 03:44 | 43.55411 | 132.43020 | 7987 ft | 291 kts | 27° |
| 2026-04-14 03:44 | 43.57193 | 132.44432 | 8507 ft | 299 kts | 28° |
| 2026-04-14 03:44 | 43.58372 | 132.45429 | 8877 ft | 303 kts | 30° |
| 2026-04-14 03:45 | 43.60739 | 132.47534 | 9886 ft | 297 kts | 28° |
| 2026-04-14 03:45 | 43.61901 | 132.48498 | 10456 ft | 291 kts | 26° |
| 2026-04-14 03:45 | 43.63713 | 132.49890 | 10667 ft | 309 kts | 25° |
| 2026-04-14 03:45 | 43.66359 | 132.51881 | 10677 ft | 338 kts | 26° |
| 2026-04-14 03:46 | 43.68462 | 132.53522 | 10794 ft | 356 kts | 27° |
| 2026-04-14 03:46 | 43.70627 | 132.55250 | 10948 ft | 371 kts | 27° |
| 2026-04-14 03:46 | 43.72158 | 132.56464 | 11043 ft | 381 kts | 27° |
| 2026-04-14 03:46 | 43.75253 | 132.58909 | 11566 ft | 389 kts | 27° |
| 2026-04-14 03:47 | 43.77612 | 132.60752 | 12095 ft | 391 kts | 25° |
| 2026-04-14 03:47 | 43.79217 | 132.62015 | 12394 ft | 395 kts | 25° |
| 2026-04-14 03:47 | 43.81505 | 132.64182 | 12868 ft | 403 kts | 36° |
| 2026-04-14 03:47 | 43.83612 | 132.66783 | 13363 ft | 408 kts | 38° |
| 2026-04-14 03:48 | 43.85706 | 132.69388 | 13848 ft | 411 kts | 38° |
| 2026-04-14 03:48 | 43.87876 | 132.72072 | 14292 ft | 414 kts | 37° |
| 2026-04-14 03:48 | 43.90004 | 132.74699 | 14704 ft | 417 kts | 37° |
| 2026-04-14 03:48 | 43.92175 | 132.77380 | 15129 ft | 420 kts | 37° |
| 2026-04-14 03:49 | 43.94364 | 132.80082 | 15547 ft | 422 kts | 37° |
| 2026-04-14 03:49 | 43.96565 | 132.82800 | 15976 ft | 425 kts | 37° |
| 2026-04-14 03:49 | 43.98778 | 132.85534 | 16379 ft | 428 kts | 36° |
| 2026-04-14 03:49 | 44.01009 | 132.88293 | 16789 ft | 430 kts | 36° |
| 2026-04-14 03:50 | 44.03253 | 132.91069 | 17214 ft | 433 kts | 36° |
| 2026-04-14 03:50 | 44.05506 | 132.93864 | 17639 ft | 436 kts | 36° |
| 2026-04-14 03:50 | 44.07770 | 132.96681 | 18040 ft | 438 kts | 36° |
| 2026-04-14 03:50 | 44.10044 | 132.99519 | 18422 ft | 441 kts | 36° |
| 2026-04-14 03:51 | 44.12339 | 133.02382 | 18763 ft | 444 kts | 36° |
| 2026-04-14 03:51 | 44.14640 | 133.05252 | 19103 ft | 446 kts | 35° |
| 2026-04-14 03:51 | 44.16961 | 133.08149 | 19439 ft | 449 kts | 35° |
| 2026-04-14 03:51 | 44.19287 | 133.11056 | 19771 ft | 451 kts | 35° |
| 2026-04-14 03:52 | 44.21731 | 133.13768 | 20100 ft | 449 kts | 29° |
| 2026-04-14 03:52 | 44.24251 | 133.16356 | 20429 ft | 451 kts | 29° |
| 2026-04-14 03:52 | 44.26784 | 133.18960 | 20766 ft | 454 kts | 29° |
| 2026-04-14 03:52 | 44.29333 | 133.21583 | 21096 ft | 456 kts | 29° |
| 2026-04-14 03:53 | 44.31893 | 133.24220 | 21422 ft | 459 kts | 28° |
| 2026-04-14 03:53 | 44.34463 | 133.26870 | 21741 ft | 461 kts | 28° |
| 2026-04-14 03:53 | 44.37054 | 133.29546 | 22057 ft | 464 kts | 28° |
| 2026-04-14 03:53 | 44.39652 | 133.32231 | 22380 ft | 466 kts | 28° |
| 2026-04-14 03:54 | 44.42230 | 133.34904 | 22720 ft | 468 kts | 28° |
| 2026-04-14 03:54 | 44.44886 | 133.37666 | 23053 ft | 471 kts | 28° |
| 2026-04-14 03:54 | 44.47487 | 133.40375 | 23348 ft | 473 kts | 28° |
| 2026-04-14 03:54 | 44.50136 | 133.43133 | 23647 ft | 476 kts | 28° |
| 2026-04-14 03:55 | 44.52801 | 133.45907 | 23909 ft | 478 kts | 28° |
| 2026-04-14 03:55 | 44.55476 | 133.48690 | 24158 ft | 480 kts | 28° |
| 2026-04-14 03:55 | 44.58164 | 133.51488 | 24411 ft | 482 kts | 28° |
| 2026-04-14 03:55 | 44.60863 | 133.54306 | 24654 ft | 484 kts | 28° |
| 2026-04-14 03:56 | 44.63568 | 133.57136 | 24904 ft | 486 kts | 28° |
| 2026-04-14 03:56 | 44.66282 | 133.59980 | 25149 ft | 488 kts | 28° |
| 2026-04-14 03:56 | 44.69008 | 133.62845 | 25404 ft | 490 kts | 28° |
| 2026-04-14 03:56 | 44.71741 | 133.65719 | 25653 ft | 492 kts | 28° |
| 2026-04-14 03:57 | 44.74487 | 133.68605 | 25908 ft | 493 kts | 28° |
| 2026-04-14 03:57 | 44.77231 | 133.71494 | 26260 ft | 492 kts | 28° |
| 2026-04-14 03:57 | 44.79970 | 133.74373 | 26610 ft | 492 kts | 28° |
| 2026-04-14 03:57 | 44.82709 | 133.77255 | 26954 ft | 491 kts | 28° |
| 2026-04-14 03:58 | 44.85444 | 133.80142 | 27289 ft | 491 kts | 27° |
| 2026-04-14 03:58 | 44.88172 | 133.83029 | 27624 ft | 490 kts | 27° |
| 2026-04-14 03:58 | 44.90898 | 133.85923 | 27956 ft | 490 kts | 27° |
| 2026-04-14 03:58 | 44.93627 | 133.88795 | 28278 ft | 489 kts | 26° |
| 2026-04-14 03:59 | 44.96377 | 133.91594 | 28596 ft | 487 kts | 25° |
| 2026-04-14 03:59 | 44.99150 | 133.94340 | 28911 ft | 486 kts | 25° |
| 2026-04-14 03:59 | 45.01930 | 133.97054 | 29216 ft | 485 kts | 24° |
| 2026-04-14 03:59 | 45.04708 | 133.99762 | 29539 ft | 485 kts | 24° |
| 2026-04-14 04:00 | 45.07479 | 134.02482 | 29834 ft | 485 kts | 25° |
| 2026-04-14 04:00 | 45.10245 | 134.05225 | 30134 ft | 485 kts | 25° |
| 2026-04-14 04:00 | 45.12997 | 134.07983 | 30405 ft | 485 kts | 25° |
| 2026-04-14 04:00 | 45.15748 | 134.10757 | 30657 ft | 485 kts | 25° |
| 2026-04-14 04:01 | 45.18495 | 134.13528 | 30915 ft | 484 kts | 25° |
| 2026-04-14 04:01 | 45.21235 | 134.16288 | 31153 ft | 484 kts | 25° |
| 2026-04-14 04:01 | 45.23980 | 134.19053 | 31397 ft | 484 kts | 25° |
| 2026-04-14 04:01 | 45.26688 | 134.21782 | 31646 ft | 483 kts | 25° |
| 2026-04-14 04:02 | 45.29429 | 134.24545 | 31894 ft | 483 kts | 25° |
| 2026-04-14 04:02 | 45.32167 | 134.27306 | 32096 ft | 483 kts | 25° |
| 2026-04-14 04:02 | 45.34904 | 134.30071 | 32143 ft | 483 kts | 25° |
| 2026-04-14 04:03 | 45.40370 | 134.35616 | 32143 ft | 482 kts | 25° |
| 2026-04-14 04:03 | 45.45833 | 134.41159 | 32146 ft | 482 kts | 25° |
| 2026-04-14 04:04 | 45.51293 | 134.46718 | 32140 ft | 482 kts | 25° |
| 2026-04-14 04:04 | 45.56746 | 134.52289 | 32141 ft | 482 kts | 25° |
| 2026-04-14 04:05 | 45.62194 | 134.57854 | 32140 ft | 481 kts | 25° |
| 2026-04-14 04:05 | 45.67636 | 134.63430 | 32140 ft | 482 kts | 25° |
| 2026-04-14 04:06 | 45.73071 | 134.69029 | 32140 ft | 481 kts | 25° |
| 2026-04-14 04:06 | 45.78501 | 134.74633 | 32130 ft | 481 kts | 25° |
| 2026-04-14 04:07 | 45.83933 | 134.80234 | 32129 ft | 481 kts | 25° |
| 2026-04-14 04:07 | 45.89513 | 134.85104 | 32134 ft | 461 kts | 11° |
| 2026-04-14 04:07 | 45.92499 | 134.86559 | 32134 ft | 447 kts | 2° |
| 2026-04-14 04:08 | 45.95514 | 134.87340 | 32133 ft | 435 kts | 354° |
| 2026-04-14 04:08 | 46.01522 | 134.88115 | 32130 ft | 434 kts | 354° |
| 2026-04-14 04:09 | 46.07540 | 134.88921 | 32131 ft | 434 kts | 354° |
| 2026-04-14 04:09 | 46.13556 | 134.89732 | 32127 ft | 434 kts | 354° |
| 2026-04-14 04:10 | 46.19574 | 134.90526 | 32123 ft | 434 kts | 354° |
| 2026-04-14 04:10 | 46.25598 | 134.91328 | 32120 ft | 435 kts | 354° |
| 2026-04-14 04:11 | 46.31623 | 134.92142 | 32119 ft | 435 kts | 355° |
| 2026-04-14 04:11 | 46.37643 | 134.92958 | 32120 ft | 435 kts | 355° |
| 2026-04-14 04:12 | 46.43666 | 134.93771 | 32118 ft | 435 kts | 355° |
| 2026-04-14 04:12 | 46.49692 | 134.94582 | 32117 ft | 435 kts | 355° |
| 2026-04-14 04:13 | 46.55707 | 134.95400 | 32026 ft | 433 kts | 355° |
| 2026-04-14 04:13 | 46.58708 | 134.95806 | 31414 ft | 433 kts | 355° |
| 2026-04-14 04:13 | 46.61650 | 134.96205 | 31161 ft | 430 kts | 355° |
| 2026-04-14 04:14 | 46.67624 | 134.97015 | 31111 ft | 432 kts | 355° |
| 2026-04-14 04:14 | 46.73602 | 134.97814 | 31109 ft | 431 kts | 355° |
| 2026-04-14 04:15 | 46.79577 | 134.98621 | 31106 ft | 431 kts | 355° |
| 2026-04-14 04:15 | 46.85547 | 134.99429 | 31107 ft | 430 kts | 355° |
| 2026-04-14 04:16 | 46.91504 | 135.00170 | 31104 ft | 429 kts | 354° |
| 2026-04-14 04:16 | 46.97460 | 135.00883 | 31105 ft | 430 kts | 354° |
| 2026-04-14 04:17 | 47.03421 | 135.01615 | 31106 ft | 430 kts | 355° |
| 2026-04-14 04:17 | 47.09387 | 135.02359 | 31100 ft | 430 kts | 355° |
| 2026-04-14 04:18 | 47.15357 | 135.03117 | 31094 ft | 431 kts | 355° |
| 2026-04-14 04:18 | 47.21327 | 135.03865 | 31096 ft | 431 kts | 355° |
| 2026-04-14 04:19 | 47.27259 | 135.04610 | 31093 ft | 430 kts | 355° |
| 2026-04-14 04:19 | 47.33221 | 135.05360 | 31094 ft | 430 kts | 355° |
| 2026-04-14 04:20 | 47.39190 | 135.06111 | 31086 ft | 431 kts | 355° |
| 2026-04-14 04:20 | 47.45165 | 135.06869 | 31083 ft | 431 kts | 355° |
| 2026-04-14 04:21 | 47.51140 | 135.07623 | 31080 ft | 431 kts | 355° |
| 2026-04-14 04:21 | 47.57126 | 135.08379 | 31078 ft | 432 kts | 355° |
| 2026-04-14 04:22 | 47.63130 | 135.09139 | 31082 ft | 435 kts | 356° |
| 2026-04-14 04:22 | 47.69182 | 135.09914 | 31084 ft | 437 kts | 356° |
| 2026-04-14 04:23 | 47.75207 | 135.10699 | 31085 ft | 438 kts | 356° |
| 2026-04-14 04:23 | 47.81276 | 135.11481 | 31079 ft | 438 kts | 356° |
| 2026-04-14 04:24 | 47.87363 | 135.12259 | 31075 ft | 439 kts | 356° |
| 2026-04-14 04:24 | 47.93456 | 135.13046 | 31072 ft | 440 kts | 356° |
| 2026-04-14 04:25 | 47.99553 | 135.13843 | 31073 ft | 440 kts | 357° |
| 2026-04-14 04:25 | 48.05661 | 135.14634 | 31068 ft | 441 kts | 357° |
| 2026-04-14 04:26 | 48.11773 | 135.15420 | 31068 ft | 441 kts | 357° |
| 2026-04-14 04:26 | 48.17891 | 135.16217 | 31063 ft | 442 kts | 357° |
| 2026-04-14 04:27 | 48.24016 | 135.17027 | 31063 ft | 442 kts | 357° |
| 2026-04-14 04:27 | 48.26748 | 135.17385 | 31060 ft | 442 kts | 357° |
| 2026-04-14 04:28 | 48.30394 | 135.17852 | 31059 ft | 442 kts | 357° |
| 2026-04-14 04:28 | 48.36535 | 135.18660 | 31057 ft | 443 kts | 357° |
| 2026-04-14 04:29 | 48.42675 | 135.19465 | 31064 ft | 443 kts | 357° |
| 2026-04-14 04:29 | 48.48814 | 135.20098 | 31061 ft | 437 kts | 350° |
| 2026-04-14 04:30 | 48.54628 | 135.18358 | 31065 ft | 420 kts | 332° |
| 2026-04-14 04:30 | 48.59599 | 135.14069 | 31055 ft | 408 kts | 316° |
| 2026-04-14 04:31 | 48.63809 | 135.08372 | 31053 ft | 406 kts | 314° |
| 2026-04-14 04:31 | 48.70086 | 134.99803 | 31051 ft | 407 kts | 314° |
| 2026-04-14 04:32 | 48.74287 | 134.94047 | 31050 ft | 408 kts | 314° |
| 2026-04-14 04:32 | 48.78492 | 134.88270 | 31045 ft | 408 kts | 314° |
| 2026-04-14 04:33 | 48.82695 | 134.82480 | 31042 ft | 408 kts | 314° |
| 2026-04-14 04:33 | 48.86896 | 134.76669 | 31044 ft | 409 kts | 314° |
| 2026-04-14 04:34 | 48.91102 | 134.70844 | 31044 ft | 409 kts | 314° |
| 2026-04-14 04:34 | 48.95319 | 134.64996 | 31364 ft | 410 kts | 313° |
| 2026-04-14 04:35 | 48.97425 | 134.62067 | 31584 ft | 411 kts | 313° |
| 2026-04-14 04:35 | 48.99533 | 134.59130 | 31788 ft | 411 kts | 313° |
| 2026-04-14 04:35 | 49.01644 | 134.56182 | 31978 ft | 412 kts | 313° |
| 2026-04-14 04:35 | 49.03758 | 134.53227 | 32178 ft | 412 kts | 313° |
| 2026-04-14 04:36 | 49.05871 | 134.50272 | 32380 ft | 413 kts | 313° |
| 2026-04-14 04:36 | 49.07915 | 134.47216 | 32554 ft | 411 kts | 308° |
| 2026-04-14 04:36 | 49.09660 | 134.43789 | 32728 ft | 408 kts | 300° |
| 2026-04-14 04:36 | 49.11209 | 134.40160 | 32907 ft | 408 kts | 300° |
| 2026-04-14 04:37 | 49.12767 | 134.36534 | 33091 ft | 409 kts | 300° |
| 2026-04-14 04:37 | 49.14312 | 134.32955 | 33269 ft | 409 kts | 300° |
| 2026-04-14 04:37 | 49.15881 | 134.29323 | 33451 ft | 410 kts | 300° |
| 2026-04-14 04:37 | 49.17451 | 134.25685 | 33623 ft | 410 kts | 300° |
| 2026-04-14 04:38 | 49.19024 | 134.22038 | 33785 ft | 411 kts | 300° |
| 2026-04-14 04:38 | 49.20595 | 134.18388 | 33975 ft | 411 kts | 300° |
| 2026-04-14 04:38 | 49.23735 | 134.11056 | 34049 ft | 412 kts | 300° |
| 2026-04-14 04:39 | 49.26824 | 134.03826 | 34047 ft | 401 kts | 301° |
| 2026-04-14 04:39 | 49.29862 | 133.96677 | 34046 ft | 400 kts | 300° |
| 2026-04-14 04:40 | 49.32890 | 133.89522 | 34045 ft | 400 kts | 300° |
| 2026-04-14 04:41 | 49.36928 | 133.79971 | 34048 ft | 401 kts | 300° |
| 2026-04-14 04:41 | 49.39959 | 133.72790 | 34052 ft | 401 kts | 300° |
| 2026-04-14 04:42 | 49.42988 | 133.65588 | 34057 ft | 402 kts | 300° |
| 2026-04-14 04:42 | 49.46023 | 133.58377 | 34059 ft | 401 kts | 300° |
| 2026-04-14 04:43 | 49.49054 | 133.51171 | 34064 ft | 401 kts | 300° |
| 2026-04-14 04:43 | 49.52079 | 133.43967 | 34064 ft | 401 kts | 300° |
| 2026-04-14 04:44 | 49.55094 | 133.36741 | 34066 ft | 401 kts | 300° |
| 2026-04-14 04:44 | 49.58111 | 133.29509 | 34067 ft | 401 kts | 300° |
| 2026-04-14 04:45 | 49.61099 | 133.22322 | 34065 ft | 401 kts | 300° |
| 2026-04-14 04:45 | 49.64104 | 133.15077 | 34071 ft | 401 kts | 300° |
| 2026-04-14 04:46 | 49.67099 | 133.07809 | 34077 ft | 401 kts | 300° |
| 2026-04-14 04:46 | 49.70094 | 133.00544 | 34079 ft | 401 kts | 300° |
| 2026-04-14 04:47 | 49.73092 | 132.93270 | 34079 ft | 401 kts | 300° |
| 2026-04-14 04:47 | 49.76078 | 132.85987 | 34081 ft | 401 kts | 300° |
| 2026-04-14 04:48 | 49.79052 | 132.78687 | 34082 ft | 401 kts | 300° |
| 2026-04-14 04:48 | 49.82029 | 132.71387 | 34082 ft | 401 kts | 300° |
| 2026-04-14 04:49 | 49.85003 | 132.64078 | 34081 ft | 401 kts | 300° |
| 2026-04-14 04:49 | 49.87949 | 132.56816 | 34080 ft | 400 kts | 300° |
| 2026-04-14 04:50 | 49.90902 | 132.49497 | 34081 ft | 400 kts | 300° |
| 2026-04-14 04:50 | 49.93854 | 132.42170 | 34080 ft | 400 kts | 300° |
| 2026-04-14 04:51 | 49.96801 | 132.34843 | 34084 ft | 400 kts | 300° |
| 2026-04-14 04:51 | 49.99746 | 132.27508 | 34088 ft | 400 kts | 299° |
| 2026-04-14 04:52 | 50.02680 | 132.20173 | 34087 ft | 400 kts | 301° |
| 2026-04-14 04:52 | 50.06354 | 132.13622 | 34089 ft | 404 kts | 310° |
| 2026-04-14 04:53 | 50.10261 | 132.07353 | 34095 ft | 403 kts | 310° |
| 2026-04-14 04:53 | 50.14150 | 132.01063 | 34084 ft | 403 kts | 310° |
| 2026-04-14 04:54 | 50.18012 | 131.94793 | 34088 ft | 403 kts | 310° |
| 2026-04-14 04:54 | 50.21900 | 131.88482 | 34106 ft | 403 kts | 310° |
| 2026-04-14 04:55 | 50.25788 | 131.82163 | 34096 ft | 403 kts | 310° |
| 2026-04-14 04:55 | 50.29659 | 131.75827 | 34091 ft | 403 kts | 310° |
| 2026-04-14 04:56 | 50.33529 | 131.69485 | 34104 ft | 403 kts | 310° |
| 2026-04-14 04:56 | 50.37405 | 131.63139 | 34088 ft | 403 kts | 310° |
| 2026-04-14 04:57 | 50.41269 | 131.56787 | 34085 ft | 403 kts | 310° |
| 2026-04-14 04:57 | 50.45127 | 131.50409 | 34083 ft | 403 kts | 310° |
| 2026-04-14 04:58 | 50.48976 | 131.44025 | 34088 ft | 402 kts | 309° |
| 2026-04-14 04:58 | 50.52829 | 131.37636 | 34085 ft | 403 kts | 309° |
| 2026-04-14 04:59 | 50.56681 | 131.31237 | 34089 ft | 403 kts | 310° |
| 2026-04-14 04:59 | 50.60511 | 131.24860 | 34088 ft | 404 kts | 309° |
| 2026-04-14 05:00 | 50.64364 | 131.18420 | 34091 ft | 404 kts | 309° |
| 2026-04-14 05:00 | 50.68209 | 131.11971 | 34090 ft | 404 kts | 309° |
| 2026-04-14 05:01 | 50.72056 | 131.05505 | 34089 ft | 404 kts | 309° |
| 2026-04-14 05:01 | 50.75903 | 130.99026 | 34091 ft | 404 kts | 309° |
| 2026-04-14 05:02 | 50.79746 | 130.92536 | 34092 ft | 405 kts | 309° |
| 2026-04-14 05:02 | 50.83591 | 130.86038 | 34094 ft | 404 kts | 309° |
| 2026-04-14 05:03 | 50.87405 | 130.79561 | 34097 ft | 405 kts | 309° |
| 2026-04-14 05:03 | 50.91243 | 130.73028 | 34094 ft | 405 kts | 309° |
| 2026-04-14 05:04 | 50.95077 | 130.66476 | 34095 ft | 405 kts | 309° |
| 2026-04-14 05:04 | 50.98908 | 130.59903 | 34097 ft | 406 kts | 309° |
| 2026-04-14 05:05 | 51.02740 | 130.53324 | 34095 ft | 406 kts | 309° |
| 2026-04-14 05:05 | 51.06571 | 130.46730 | 34098 ft | 406 kts | 309° |
| 2026-04-14 05:06 | 51.10400 | 130.40114 | 34097 ft | 406 kts | 309° |
| 2026-04-14 05:06 | 51.14226 | 130.33493 | 34097 ft | 406 kts | 309° |
| 2026-04-14 05:07 | 51.18049 | 130.26855 | 34099 ft | 407 kts | 309° |
| 2026-04-14 05:07 | 51.21872 | 130.20214 | 34093 ft | 407 kts | 309° |
| 2026-04-14 05:08 | 51.25696 | 130.13559 | 34094 ft | 407 kts | 309° |
| 2026-04-14 05:08 | 51.29514 | 130.06886 | 34093 ft | 407 kts | 309° |
| 2026-04-14 05:09 | 51.33303 | 130.00236 | 34091 ft | 407 kts | 309° |
| 2026-04-14 05:09 | 51.37077 | 129.93474 | 34089 ft | 408 kts | 308° |
| 2026-04-14 05:10 | 51.40821 | 129.86650 | 34092 ft | 408 kts | 308° |
| 2026-04-14 05:10 | 51.44564 | 129.79815 | 34090 ft | 408 kts | 308° |
| 2026-04-14 05:11 | 51.48315 | 129.72969 | 34092 ft | 409 kts | 308° |
| 2026-04-14 05:11 | 51.52062 | 129.66116 | 34092 ft | 409 kts | 308° |
| 2026-04-14 05:12 | 51.55811 | 129.59247 | 34089 ft | 409 kts | 308° |
| 2026-04-14 05:12 | 51.59560 | 129.52367 | 34084 ft | 409 kts | 308° |
| 2026-04-14 05:13 | 51.63291 | 129.45468 | 34085 ft | 409 kts | 308° |
| 2026-04-14 05:13 | 51.67024 | 129.38559 | 34086 ft | 409 kts | 308° |
| 2026-04-14 05:14 | 51.70759 | 129.31644 | 34084 ft | 409 kts | 308° |
| 2026-04-14 05:14 | 51.74485 | 129.24717 | 34079 ft | 409 kts | 308° |
| 2026-04-14 05:15 | 51.78186 | 129.17820 | 34077 ft | 409 kts | 308° |
| 2026-04-14 05:15 | 51.81909 | 129.10869 | 34070 ft | 409 kts | 308° |
| 2026-04-14 05:16 | 51.85629 | 129.03905 | 34073 ft | 409 kts | 308° |
| 2026-04-14 05:16 | 51.89339 | 128.96918 | 34070 ft | 409 kts | 308° |
| 2026-04-14 05:17 | 51.93048 | 128.89918 | 34067 ft | 409 kts | 308° |
| 2026-04-14 05:17 | 51.96752 | 128.82912 | 34059 ft | 409 kts | 308° |
| 2026-04-14 05:18 | 52.00459 | 128.75897 | 34064 ft | 409 kts | 308° |
| 2026-04-14 05:18 | 52.04160 | 128.68867 | 34065 ft | 410 kts | 308° |
| 2026-04-14 05:19 | 52.07858 | 128.61822 | 34066 ft | 410 kts | 308° |
| 2026-04-14 05:19 | 52.11550 | 128.54764 | 34063 ft | 410 kts | 308° |
| 2026-04-14 05:20 | 52.15245 | 128.47686 | 34061 ft | 410 kts | 308° |
| 2026-04-14 05:20 | 52.18913 | 128.40648 | 34063 ft | 410 kts | 308° |
| 2026-04-14 05:21 | 52.22598 | 128.33549 | 34064 ft | 410 kts | 307° |
| 2026-04-14 05:21 | 52.26274 | 128.26428 | 34066 ft | 410 kts | 307° |
| 2026-04-14 05:22 | 52.29950 | 128.19291 | 34070 ft | 410 kts | 307° |
| 2026-04-14 05:22 | 52.33624 | 128.12160 | 34070 ft | 410 kts | 307° |
| 2026-04-14 05:23 | 52.37298 | 128.05015 | 34067 ft | 410 kts | 307° |
| 2026-04-14 05:23 | 52.40959 | 127.97851 | 34067 ft | 410 kts | 307° |
| 2026-04-14 05:24 | 52.44615 | 127.90666 | 34065 ft | 410 kts | 307° |
| 2026-04-14 05:24 | 52.48272 | 127.83480 | 34060 ft | 410 kts | 307° |
| 2026-04-14 05:25 | 52.51930 | 127.76283 | 34064 ft | 411 kts | 307° |
| 2026-04-14 05:25 | 52.55557 | 127.69116 | 34061 ft | 411 kts | 307° |
| 2026-04-14 05:26 | 52.59204 | 127.61896 | 34054 ft | 410 kts | 307° |
| 2026-04-14 05:26 | 52.62842 | 127.54665 | 34053 ft | 410 kts | 307° |
| 2026-04-14 05:27 | 52.66474 | 127.47413 | 34063 ft | 411 kts | 307° |
| 2026-04-14 05:27 | 52.70102 | 127.40137 | 34063 ft | 411 kts | 307° |
| 2026-04-14 05:28 | 52.73710 | 127.32832 | 34057 ft | 411 kts | 307° |
| 2026-04-14 05:28 | 52.77310 | 127.25496 | 34062 ft | 411 kts | 307° |
| 2026-04-14 05:29 | 52.80909 | 127.18144 | 34057 ft | 411 kts | 307° |
| 2026-04-14 05:29 | 52.84509 | 127.10785 | 34054 ft | 412 kts | 307° |
| 2026-04-14 05:30 | 52.88111 | 127.03424 | 34066 ft | 412 kts | 307° |
| 2026-04-14 05:30 | 52.91717 | 126.96049 | 34057 ft | 412 kts | 307° |
| 2026-04-14 05:31 | 52.95288 | 126.88700 | 34058 ft | 412 kts | 306° |
| 2026-04-14 05:31 | 52.98869 | 126.81279 | 34068 ft | 412 kts | 306° |
| 2026-04-14 05:32 | 53.02461 | 126.73856 | 34064 ft | 412 kts | 306° |
| 2026-04-14 05:32 | 53.06048 | 126.66416 | 34065 ft | 412 kts | 306° |
| 2026-04-14 05:33 | 53.09619 | 126.58952 | 34065 ft | 412 kts | 306° |
| 2026-04-14 05:33 | 53.13192 | 126.51476 | 34067 ft | 413 kts | 306° |
| 2026-04-14 05:34 | 53.18557 | 126.40250 | 34060 ft | 413 kts | 306° |
| 2026-04-14 05:34 | 53.22129 | 126.32746 | 34055 ft | 413 kts | 306° |
| 2026-04-14 05:35 | 53.25697 | 126.25222 | 34059 ft | 413 kts | 306° |
| 2026-04-14 05:35 | 53.29256 | 126.17686 | 34054 ft | 413 kts | 306° |
| 2026-04-14 05:36 | 53.32780 | 126.10184 | 34055 ft | 413 kts | 306° |
| 2026-04-14 05:36 | 53.36328 | 126.02617 | 34050 ft | 413 kts | 306° |
| 2026-04-14 05:37 | 53.39871 | 125.95040 | 34050 ft | 414 kts | 306° |
| 2026-04-14 05:37 | 53.43421 | 125.87443 | 34045 ft | 414 kts | 306° |
| 2026-04-14 05:38 | 53.46889 | 125.79740 | 34041 ft | 412 kts | 300° |
| 2026-04-14 05:38 | 53.48996 | 125.72592 | 34043 ft | 411 kts | 294° |
| 2026-04-14 05:39 | 53.51376 | 125.63857 | 34042 ft | 412 kts | 294° |
| 2026-04-14 05:39 | 53.53767 | 125.55118 | 34042 ft | 412 kts | 294° |
| 2026-04-14 05:40 | 53.56151 | 125.46364 | 34039 ft | 411 kts | 294° |
| 2026-04-14 05:40 | 53.58529 | 125.37604 | 34031 ft | 411 kts | 294° |
| 2026-04-14 05:41 | 53.60891 | 125.28835 | 34033 ft | 411 kts | 293° |
| 2026-04-14 05:41 | 53.63245 | 125.20047 | 34031 ft | 411 kts | 293° |
| 2026-04-14 05:42 | 53.65576 | 125.11322 | 34031 ft | 411 kts | 293° |
| 2026-04-14 05:42 | 53.67928 | 125.02525 | 34030 ft | 411 kts | 293° |
| 2026-04-14 05:43 | 53.70265 | 124.93732 | 34034 ft | 411 kts | 293° |
| 2026-04-14 05:43 | 53.72587 | 124.84923 | 34032 ft | 411 kts | 293° |
| 2026-04-14 05:44 | 53.74909 | 124.76117 | 34035 ft | 410 kts | 293° |
| 2026-04-14 05:44 | 53.77227 | 124.67305 | 34030 ft | 410 kts | 292° |
| 2026-04-14 05:45 | 53.79532 | 124.58485 | 34025 ft | 410 kts | 292° |
| 2026-04-14 05:45 | 53.81827 | 124.49666 | 34022 ft | 410 kts | 292° |
| 2026-04-14 05:46 | 53.84118 | 124.40842 | 34024 ft | 410 kts | 292° |
| 2026-04-14 05:46 | 53.86385 | 124.32063 | 34015 ft | 409 kts | 292° |
| 2026-04-14 05:47 | 53.88662 | 124.23225 | 34010 ft | 409 kts | 292° |
| 2026-04-14 05:47 | 53.90927 | 124.14370 | 34006 ft | 409 kts | 292° |
| 2026-04-14 05:48 | 53.93187 | 124.05507 | 34005 ft | 409 kts | 292° |
| 2026-04-14 05:48 | 53.95440 | 123.96648 | 34002 ft | 409 kts | 292° |
| 2026-04-14 05:49 | 53.97681 | 123.87781 | 34000 ft | 409 kts | 292° |
| 2026-04-14 05:49 | 53.99919 | 123.78910 | 33992 ft | 408 kts | 292° |
| 2026-04-14 05:50 | 54.02152 | 123.70026 | 33992 ft | 408 kts | 291° |
| 2026-04-14 05:50 | 54.04377 | 123.61136 | 33991 ft | 408 kts | 291° |
| 2026-04-14 05:51 | 54.06578 | 123.52300 | 33989 ft | 408 kts | 291° |
| 2026-04-14 05:51 | 54.08790 | 123.43393 | 33990 ft | 408 kts | 291° |
| 2026-04-14 05:52 | 54.10986 | 123.34484 | 33984 ft | 408 kts | 291° |
| 2026-04-14 05:52 | 54.13179 | 123.25563 | 33986 ft | 408 kts | 291° |
| 2026-04-14 05:53 | 54.15371 | 123.16633 | 33981 ft | 408 kts | 291° |
| 2026-04-14 05:53 | 54.17554 | 123.07711 | 33986 ft | 408 kts | 291° |
| 2026-04-14 05:54 | 54.19725 | 122.98773 | 33978 ft | 407 kts | 291° |
| 2026-04-14 05:54 | 54.21886 | 122.89834 | 33976 ft | 407 kts | 290° |
| 2026-04-14 05:55 | 54.24034 | 122.80898 | 33964 ft | 406 kts | 290° |
| 2026-04-14 05:55 | 54.26165 | 122.72011 | 33957 ft | 406 kts | 290° |
| 2026-04-14 05:56 | 54.28306 | 122.63068 | 33960 ft | 406 kts | 290° |
| 2026-04-14 05:56 | 54.30442 | 122.54108 | 33944 ft | 406 kts | 290° |
| 2026-04-14 05:57 | 54.32570 | 122.45151 | 33950 ft | 406 kts | 290° |
| 2026-04-14 05:57 | 54.34691 | 122.36188 | 33937 ft | 406 kts | 290° |
| 2026-04-14 05:58 | 54.36799 | 122.27206 | 33938 ft | 406 kts | 290° |
| 2026-04-14 05:58 | 54.38898 | 122.18217 | 33930 ft | 406 kts | 289° |
| 2026-04-14 05:59 | 54.40992 | 122.09215 | 33939 ft | 406 kts | 288° |
| 2026-04-14 05:59 | 54.42582 | 121.99949 | 33929 ft | 404 kts | 284° |
| 2026-04-14 06:00 | 54.44085 | 121.90646 | 33930 ft | 404 kts | 284° |
| 2026-04-14 06:00 | 54.45573 | 121.81336 | 33919 ft | 404 kts | 284° |
| 2026-04-14 06:01 | 54.47054 | 121.72029 | 33914 ft | 404 kts | 283° |
| 2026-04-14 06:01 | 54.48541 | 121.62707 | 33904 ft | 404 kts | 283° |
| 2026-04-14 06:02 | 54.50017 | 121.53394 | 33914 ft | 404 kts | 283° |
| 2026-04-14 06:02 | 54.51475 | 121.44122 | 33892 ft | 404 kts | 283° |
| 2026-04-14 06:03 | 54.52930 | 121.34790 | 33890 ft | 404 kts | 283° |
| 2026-04-14 06:04 | 54.55102 | 121.20759 | 33884 ft | 404 kts | 283° |
| 2026-04-14 06:04 | 54.56550 | 121.11392 | 33882 ft | 405 kts | 283° |
| 2026-04-14 06:05 | 54.57993 | 121.02009 | 33879 ft | 405 kts | 283° |
| 2026-04-14 06:05 | 54.59412 | 120.92621 | 33878 ft | 405 kts | 283° |
| 2026-04-14 06:06 | 54.60832 | 120.83222 | 33879 ft | 405 kts | 283° |
| 2026-04-14 06:06 | 54.62241 | 120.73823 | 33873 ft | 405 kts | 283° |
| 2026-04-14 06:07 | 54.63645 | 120.64409 | 33869 ft | 405 kts | 283° |
| 2026-04-14 06:07 | 54.65036 | 120.55058 | 33872 ft | 405 kts | 283° |
| 2026-04-14 06:08 | 54.66437 | 120.45631 | 33872 ft | 405 kts | 283° |
| 2026-04-14 06:08 | 54.67829 | 120.36201 | 33867 ft | 406 kts | 282° |
| 2026-04-14 06:09 | 54.69207 | 120.26745 | 33865 ft | 406 kts | 282° |
| 2026-04-14 06:09 | 54.70580 | 120.17281 | 33871 ft | 406 kts | 282° |
| 2026-04-14 06:10 | 54.71948 | 120.07814 | 33865 ft | 406 kts | 282° |
| 2026-04-14 06:10 | 54.73309 | 119.98330 | 33869 ft | 406 kts | 282° |
| 2026-04-14 06:11 | 54.74659 | 119.88847 | 33866 ft | 406 kts | 282° |
| 2026-04-14 06:11 | 54.76000 | 119.79357 | 33863 ft | 406 kts | 282° |
| 2026-04-14 06:12 | 54.77325 | 119.69927 | 33856 ft | 405 kts | 282° |
| 2026-04-14 06:12 | 54.78652 | 119.60445 | 33861 ft | 405 kts | 282° |
| 2026-04-14 06:13 | 54.79974 | 119.50948 | 33846 ft | 405 kts | 282° |
| 2026-04-14 06:13 | 54.81283 | 119.41446 | 33836 ft | 405 kts | 282° |
| 2026-04-14 06:14 | 54.82586 | 119.31943 | 33845 ft | 405 kts | 282° |
| 2026-04-14 06:14 | 54.83888 | 119.22423 | 33842 ft | 406 kts | 281° |
| 2026-04-14 06:15 | 54.85183 | 119.12904 | 33844 ft | 406 kts | 281° |
| 2026-04-14 06:15 | 54.86476 | 119.03363 | 33847 ft | 406 kts | 281° |
| 2026-04-14 06:16 | 54.87761 | 118.93816 | 33850 ft | 406 kts | 281° |
| 2026-04-14 06:16 | 54.89037 | 118.84251 | 33852 ft | 407 kts | 281° |
| 2026-04-14 06:17 | 54.90292 | 118.74735 | 33851 ft | 407 kts | 281° |
| 2026-04-14 06:17 | 54.91554 | 118.65158 | 33852 ft | 407 kts | 281° |
| 2026-04-14 06:18 | 54.92803 | 118.55574 | 33848 ft | 406 kts | 281° |
| 2026-04-14 06:18 | 54.94047 | 118.45991 | 33846 ft | 406 kts | 281° |
| 2026-04-14 06:19 | 54.95284 | 118.36405 | 33842 ft | 406 kts | 281° |
| 2026-04-14 06:19 | 54.96517 | 118.26824 | 33844 ft | 406 kts | 281° |
| 2026-04-14 06:20 | 54.97740 | 118.17219 | 33843 ft | 406 kts | 280° |
| 2026-04-14 06:20 | 54.98951 | 118.07604 | 33842 ft | 407 kts | 280° |
| 2026-04-14 06:21 | 55.00140 | 117.98039 | 33850 ft | 407 kts | 280° |
| 2026-04-14 06:21 | 55.01338 | 117.88409 | 33848 ft | 407 kts | 280° |
| 2026-04-14 06:22 | 55.02544 | 117.78770 | 33853 ft | 407 kts | 280° |
| 2026-04-14 06:22 | 55.03739 | 117.69110 | 33860 ft | 407 kts | 280° |
| 2026-04-14 06:23 | 55.04917 | 117.59442 | 33864 ft | 408 kts | 279° |
| 2026-04-14 06:23 | 55.06087 | 117.49765 | 33868 ft | 408 kts | 279° |
| 2026-04-14 06:24 | 55.07255 | 117.40071 | 33875 ft | 408 kts | 279° |
| 2026-04-14 06:24 | 55.08422 | 117.30374 | 33879 ft | 408 kts | 279° |
| 2026-04-14 06:25 | 55.09569 | 117.20672 | 33884 ft | 408 kts | 279° |
| 2026-04-14 06:25 | 55.10712 | 117.10961 | 33880 ft | 408 kts | 279° |
| 2026-04-14 06:26 | 55.11841 | 117.01317 | 33882 ft | 408 kts | 279° |
| 2026-04-14 06:26 | 55.12965 | 116.91584 | 33885 ft | 408 kts | 279° |
| 2026-04-14 06:27 | 55.14085 | 116.81860 | 33888 ft | 408 kts | 279° |
| 2026-04-14 06:27 | 55.15195 | 116.72117 | 33890 ft | 409 kts | 279° |
| 2026-04-14 06:28 | 55.16303 | 116.62378 | 33884 ft | 409 kts | 278° |
| 2026-04-14 06:28 | 55.17404 | 116.52631 | 33883 ft | 408 kts | 278° |
| 2026-04-14 06:29 | 55.18500 | 116.42870 | 33878 ft | 409 kts | 278° |
| 2026-04-14 06:29 | 55.19574 | 116.33102 | 33875 ft | 409 kts | 278° |
| 2026-04-14 06:30 | 55.20654 | 116.23325 | 33873 ft | 409 kts | 278° |
| 2026-04-14 06:30 | 55.21724 | 116.13533 | 33867 ft | 410 kts | 278° |
| 2026-04-14 06:31 | 55.22779 | 116.03720 | 33864 ft | 410 kts | 278° |
| 2026-04-14 06:31 | 55.23836 | 115.93886 | 33866 ft | 411 kts | 278° |
| 2026-04-14 06:32 | 55.24890 | 115.84113 | 33860 ft | 411 kts | 278° |
| 2026-04-14 06:32 | 55.25934 | 115.74262 | 33854 ft | 411 kts | 278° |
| 2026-04-14 06:33 | 55.26973 | 115.64402 | 33853 ft | 411 kts | 278° |
| 2026-04-14 06:33 | 55.28000 | 115.54539 | 33850 ft | 411 kts | 278° |
| 2026-04-14 06:34 | 55.29536 | 115.39721 | 33839 ft | 412 kts | 277° |
| 2026-04-14 06:34 | 55.30557 | 115.29829 | 33830 ft | 412 kts | 277° |
| 2026-04-14 06:35 | 55.31390 | 115.21591 | 33828 ft | 413 kts | 277° |
| 2026-04-14 06:35 | 55.32555 | 115.09991 | 33842 ft | 413 kts | 277° |
| 2026-04-14 06:36 | 55.33378 | 115.01732 | 33832 ft | 413 kts | 277° |
| 2026-04-14 06:36 | 55.34526 | 114.90173 | 33828 ft | 414 kts | 277° |
| 2026-04-14 06:37 | 55.35346 | 114.81826 | 33829 ft | 414 kts | 277° |
| 2026-04-14 06:37 | 55.36316 | 114.71852 | 33814 ft | 414 kts | 277° |
| 2026-04-14 06:38 | 55.37268 | 114.61955 | 33822 ft | 414 kts | 277° |
| 2026-04-14 06:38 | 55.38224 | 114.51977 | 33820 ft | 414 kts | 277° |
| 2026-04-14 06:39 | 55.39175 | 114.42000 | 33812 ft | 414 kts | 277° |
| 2026-04-14 06:39 | 55.40117 | 114.32014 | 33803 ft | 413 kts | 277° |
| 2026-04-14 06:40 | 55.41041 | 114.22033 | 33808 ft | 414 kts | 277° |
| 2026-04-14 06:40 | 55.41961 | 114.12037 | 33804 ft | 414 kts | 277° |
| 2026-04-14 06:41 | 55.42872 | 114.02042 | 33813 ft | 414 kts | 277° |
| 2026-04-14 06:41 | 55.43781 | 113.92033 | 33810 ft | 414 kts | 277° |
| 2026-04-14 06:42 | 55.44670 | 113.82085 | 33811 ft | 414 kts | 276° |
| 2026-04-14 06:42 | 55.45553 | 113.72064 | 33810 ft | 414 kts | 276° |
| 2026-04-14 06:43 | 55.46433 | 113.62037 | 33813 ft | 414 kts | 276° |
| 2026-04-14 06:43 | 55.47314 | 113.52004 | 33809 ft | 415 kts | 277° |
| 2026-04-14 06:44 | 55.48191 | 113.41952 | 33813 ft | 415 kts | 276° |
| 2026-04-14 06:44 | 55.49042 | 113.31897 | 33821 ft | 415 kts | 276° |
| 2026-04-14 06:45 | 55.49881 | 113.21833 | 33828 ft | 415 kts | 276° |
| 2026-04-14 06:45 | 55.50725 | 113.11769 | 33826 ft | 415 kts | 276° |
| 2026-04-14 06:46 | 55.51980 | 112.96665 | 33840 ft | 415 kts | 276° |
| 2026-04-14 06:47 | 55.52795 | 112.86590 | 33850 ft | 415 kts | 276° |
| 2026-04-14 06:47 | 55.53608 | 112.76520 | 33855 ft | 414 kts | 276° |
| 2026-04-14 06:48 | 55.54414 | 112.66458 | 33860 ft | 414 kts | 276° |
| 2026-04-14 06:48 | 55.55199 | 112.56456 | 33866 ft | 414 kts | 276° |
| 2026-04-14 06:49 | 55.55982 | 112.46385 | 33872 ft | 414 kts | 276° |
| 2026-04-14 06:49 | 55.56762 | 112.36319 | 33875 ft | 414 kts | 276° |
| 2026-04-14 06:50 | 55.57533 | 112.26249 | 33871 ft | 413 kts | 275° |
| 2026-04-14 06:50 | 55.58287 | 112.16185 | 33880 ft | 413 kts | 275° |
| 2026-04-14 06:51 | 55.59038 | 112.06125 | 33877 ft | 413 kts | 275° |
| 2026-04-14 06:51 | 55.59784 | 111.96072 | 33874 ft | 412 kts | 275° |
| 2026-04-14 06:52 | 55.60515 | 111.86002 | 33877 ft | 413 kts | 275° |
| 2026-04-14 06:52 | 55.61242 | 111.75944 | 33881 ft | 412 kts | 275° |
| 2026-04-14 06:53 | 55.61958 | 111.65960 | 33881 ft | 412 kts | 275° |
| 2026-04-14 06:53 | 55.62667 | 111.55916 | 33884 ft | 411 kts | 275° |
| 2026-04-14 06:54 | 55.63366 | 111.45861 | 33890 ft | 411 kts | 275° |
| 2026-04-14 06:54 | 55.64053 | 111.35823 | 33892 ft | 411 kts | 275° |
| 2026-04-14 06:55 | 55.64733 | 111.25783 | 33898 ft | 411 kts | 275° |
| 2026-04-14 06:55 | 55.65412 | 111.15730 | 33912 ft | 411 kts | 275° |
| 2026-04-14 06:56 | 55.66089 | 111.05685 | 33914 ft | 411 kts | 275° |
| 2026-04-14 06:56 | 55.66757 | 110.95647 | 33917 ft | 410 kts | 274° |
| 2026-04-14 06:57 | 55.67410 | 110.85606 | 33909 ft | 410 kts | 274° |
| 2026-04-14 06:57 | 55.68051 | 110.75558 | 33917 ft | 411 kts | 274° |
| 2026-04-14 06:58 | 55.68688 | 110.65544 | 33916 ft | 412 kts | 274° |
| 2026-04-14 06:58 | 55.69320 | 110.55453 | 33921 ft | 413 kts | 274° |
| 2026-04-14 06:59 | 55.69946 | 110.45327 | 33925 ft | 414 kts | 274° |
| 2026-04-14 06:59 | 55.70565 | 110.35176 | 33925 ft | 415 kts | 274° |
| 2026-04-14 07:00 | 55.71172 | 110.24990 | 33928 ft | 415 kts | 274° |
| 2026-04-14 07:00 | 55.71775 | 110.14798 | 33939 ft | 416 kts | 274° |
| 2026-04-14 07:01 | 55.72374 | 110.04589 | 33950 ft | 416 kts | 274° |
| 2026-04-14 07:01 | 55.72968 | 109.94385 | 33961 ft | 416 kts | 274° |
| 2026-04-14 07:02 | 55.73550 | 109.84185 | 33973 ft | 415 kts | 274° |
| 2026-04-14 07:02 | 55.74116 | 109.74061 | 33976 ft | 415 kts | 274° |
| 2026-04-14 07:03 | 55.74668 | 109.63865 | 33978 ft | 415 kts | 274° |
| 2026-04-14 07:03 | 55.75212 | 109.53681 | 33978 ft | 414 kts | 274° |
| 2026-04-14 07:04 | 55.75753 | 109.43501 | 33980 ft | 414 kts | 274° |
| 2026-04-14 07:04 | 55.76288 | 109.33328 | 33983 ft | 414 kts | 274° |
| 2026-04-14 07:05 | 55.76813 | 109.23163 | 33981 ft | 413 kts | 274° |
| 2026-04-14 07:05 | 55.77321 | 109.13006 | 33987 ft | 413 kts | 273° |
| 2026-04-14 07:06 | 55.77815 | 109.02855 | 33993 ft | 412 kts | 273° |
| 2026-04-14 07:06 | 55.78306 | 108.92710 | 33990 ft | 412 kts | 273° |
| 2026-04-14 07:07 | 55.78784 | 108.82631 | 33987 ft | 412 kts | 273° |
| 2026-04-14 07:07 | 55.79258 | 108.72458 | 33982 ft | 413 kts | 273° |
| 2026-04-14 07:08 | 55.79723 | 108.62272 | 33977 ft | 414 kts | 273° |
| 2026-04-14 07:08 | 55.80189 | 108.52072 | 33973 ft | 415 kts | 273° |
| 2026-04-14 07:09 | 55.80649 | 108.41847 | 33966 ft | 415 kts | 273° |
| 2026-04-14 07:09 | 55.81093 | 108.31618 | 33966 ft | 416 kts | 273° |
| 2026-04-14 07:10 | 55.81523 | 108.21362 | 33971 ft | 416 kts | 273° |
| 2026-04-14 07:10 | 55.81947 | 108.11096 | 33966 ft | 416 kts | 273° |
| 2026-04-14 07:11 | 55.82367 | 108.00828 | 33971 ft | 416 kts | 273° |
| 2026-04-14 07:11 | 55.82786 | 107.90557 | 33974 ft | 416 kts | 273° |
| 2026-04-14 07:12 | 55.83191 | 107.80290 | 33970 ft | 416 kts | 272° |
| 2026-04-14 07:12 | 55.83583 | 107.70086 | 33971 ft | 416 kts | 272° |
| 2026-04-14 07:13 | 55.83970 | 107.59810 | 33973 ft | 416 kts | 272° |
| 2026-04-14 07:13 | 55.84343 | 107.49544 | 33974 ft | 416 kts | 272° |
| 2026-04-14 07:14 | 55.84708 | 107.39275 | 33982 ft | 415 kts | 272° |
| 2026-04-14 07:14 | 55.85065 | 107.29026 | 33981 ft | 415 kts | 272° |
| 2026-04-14 07:15 | 55.85418 | 107.18777 | 33983 ft | 415 kts | 272° |
| 2026-04-14 07:15 | 55.85768 | 107.08540 | 33985 ft | 414 kts | 272° |
| 2026-04-14 07:16 | 55.86107 | 106.98302 | 33988 ft | 414 kts | 272° |
| 2026-04-14 07:16 | 55.86434 | 106.88076 | 33991 ft | 414 kts | 272° |
| 2026-04-14 07:17 | 55.86746 | 106.77904 | 33993 ft | 414 kts | 272° |
| 2026-04-14 07:17 | 55.87056 | 106.67671 | 33993 ft | 414 kts | 272° |
| 2026-04-14 07:18 | 55.87357 | 106.57442 | 33991 ft | 414 kts | 272° |
| 2026-04-14 07:18 | 55.87651 | 106.47198 | 33992 ft | 414 kts | 272° |
| 2026-04-14 07:19 | 55.87935 | 106.36951 | 34000 ft | 414 kts | 272° |
| 2026-04-14 07:19 | 55.88215 | 106.26705 | 33998 ft | 415 kts | 272° |
| 2026-04-14 07:20 | 55.88482 | 106.16447 | 33998 ft | 415 kts | 271° |
| 2026-04-14 07:20 | 55.88744 | 106.06178 | 33999 ft | 415 kts | 271° |
| 2026-04-14 07:21 | 55.88995 | 105.95909 | 33995 ft | 415 kts | 271° |
| 2026-04-14 07:21 | 55.89236 | 105.85710 | 34001 ft | 415 kts | 271° |
| 2026-04-14 07:22 | 55.89473 | 105.75442 | 33999 ft | 415 kts | 271° |
| 2026-04-14 07:22 | 55.89700 | 105.65168 | 34002 ft | 415 kts | 271° |
| 2026-04-14 07:23 | 55.89914 | 105.54890 | 34004 ft | 415 kts | 271° |
| 2026-04-14 07:23 | 55.90125 | 105.44603 | 34016 ft | 416 kts | 271° |
| 2026-04-14 07:24 | 55.90335 | 105.34312 | 34012 ft | 416 kts | 271° |
| 2026-04-14 07:24 | 55.90528 | 105.24006 | 34021 ft | 416 kts | 271° |
| 2026-04-14 07:25 | 55.90715 | 105.13702 | 34020 ft | 416 kts | 271° |
| 2026-04-14 07:25 | 55.90895 | 105.03394 | 34029 ft | 416 kts | 271° |
| 2026-04-14 07:26 | 55.91064 | 104.93083 | 34026 ft | 416 kts | 271° |
| 2026-04-14 07:26 | 55.91226 | 104.82840 | 34021 ft | 416 kts | 271° |
| 2026-04-14 07:27 | 55.91374 | 104.72523 | 34025 ft | 416 kts | 271° |
| 2026-04-14 07:27 | 55.91512 | 104.62206 | 34025 ft | 417 kts | 271° |
| 2026-04-14 07:28 | 55.91637 | 104.51878 | 34021 ft | 417 kts | 270° |
| 2026-04-14 07:28 | 55.91754 | 104.41552 | 34025 ft | 417 kts | 271° |
| 2026-04-14 07:29 | 55.91882 | 104.31209 | 34029 ft | 417 kts | 271° |
| 2026-04-14 07:29 | 55.91996 | 104.20862 | 34032 ft | 418 kts | 271° |
| 2026-04-14 07:30 | 55.92102 | 104.10506 | 34030 ft | 418 kts | 271° |
| 2026-04-14 07:30 | 55.92198 | 104.00156 | 34031 ft | 418 kts | 271° |
| 2026-04-14 07:31 | 55.92282 | 103.89862 | 34033 ft | 418 kts | 270° |
| 2026-04-14 07:31 | 55.92359 | 103.79503 | 34035 ft | 418 kts | 270° |
| 2026-04-14 07:32 | 55.92429 | 103.69125 | 34042 ft | 419 kts | 270° |
| 2026-04-14 07:32 | 55.92491 | 103.58746 | 34044 ft | 419 kts | 270° |
| 2026-04-14 07:33 | 55.92540 | 103.48362 | 34044 ft | 419 kts | 270° |
| 2026-04-14 07:33 | 55.92577 | 103.37979 | 34055 ft | 419 kts | 270° |
| 2026-04-14 07:34 | 55.92633 | 103.17278 | 34057 ft | 419 kts | 270° |
| 2026-04-14 07:35 | 55.92652 | 103.06898 | 34060 ft | 419 kts | 270° |
| 2026-04-14 07:35 | 55.92662 | 102.96504 | 34064 ft | 419 kts | 270° |
| 2026-04-14 07:36 | 55.92660 | 102.86118 | 34071 ft | 419 kts | 270° |
| 2026-04-14 07:36 | 55.92639 | 102.75721 | 34074 ft | 419 kts | 270° |
| 2026-04-14 07:37 | 55.92618 | 102.65317 | 34079 ft | 419 kts | 270° |
| 2026-04-14 07:37 | 55.92609 | 102.56678 | 34080 ft | 419 kts | 270° |
| 2026-04-14 07:38 | 55.92582 | 102.46280 | 34084 ft | 419 kts | 270° |
| 2026-04-14 07:38 | 55.92545 | 102.35883 | 34089 ft | 419 kts | 270° |
| 2026-04-14 07:39 | 55.92490 | 102.25493 | 34085 ft | 419 kts | 270° |
| 2026-04-14 07:39 | 55.92429 | 102.15110 | 34083 ft | 419 kts | 270° |
| 2026-04-14 07:40 | 55.92359 | 102.04734 | 34086 ft | 418 kts | 270° |
| 2026-04-14 07:40 | 55.92291 | 101.94435 | 34075 ft | 418 kts | 270° |
| 2026-04-14 07:41 | 55.92208 | 101.84068 | 34066 ft | 418 kts | 270° |
| 2026-04-14 07:41 | 55.92115 | 101.73898 | 34051 ft | 418 kts | 270° |
| 2026-04-14 07:42 | 55.92019 | 101.63541 | 34038 ft | 418 kts | 270° |
| 2026-04-14 07:42 | 55.91915 | 101.53183 | 34034 ft | 418 kts | 270° |
| 2026-04-14 07:43 | 55.91796 | 101.42823 | 34034 ft | 418 kts | 270° |
| 2026-04-14 07:43 | 55.91667 | 101.32468 | 34026 ft | 418 kts | 270° |
| 2026-04-14 07:44 | 55.91534 | 101.22114 | 34031 ft | 418 kts | 270° |
| 2026-04-14 07:44 | 55.91401 | 101.11757 | 34036 ft | 418 kts | 270° |
| 2026-04-14 07:45 | 55.91252 | 101.01412 | 34041 ft | 418 kts | 269° |
| 2026-04-14 07:45 | 55.91086 | 100.91068 | 34047 ft | 417 kts | 269° |
| 2026-04-14 07:46 | 55.90922 | 100.80732 | 34050 ft | 417 kts | 270° |
| 2026-04-14 07:46 | 55.90828 | 100.70403 | 34053 ft | 417 kts | 270° |
| 2026-04-14 07:47 | 55.90758 | 100.60145 | 34056 ft | 416 kts | 270° |
| 2026-04-14 07:47 | 55.90665 | 100.49828 | 34060 ft | 416 kts | 270° |
| 2026-04-14 07:48 | 55.90550 | 100.39516 | 34061 ft | 416 kts | 270° |
| 2026-04-14 07:48 | 55.90427 | 100.29188 | 34069 ft | 417 kts | 270° |
| 2026-04-14 07:49 | 55.90298 | 100.18858 | 34078 ft | 417 kts | 270° |
| 2026-04-14 07:49 | 55.90155 | 100.08530 | 34081 ft | 417 kts | 270° |
| 2026-04-14 07:50 | 55.90004 | 99.98205 | 34089 ft | 417 kts | 270° |
| 2026-04-14 07:50 | 55.89852 | 99.87878 | 34092 ft | 417 kts | 270° |
| 2026-04-14 07:51 | 55.89688 | 99.77543 | 34095 ft | 417 kts | 270° |
| 2026-04-14 07:51 | 55.89515 | 99.67228 | 34100 ft | 417 kts | 270° |
| 2026-04-14 07:52 | 55.89334 | 99.56903 | 34107 ft | 417 kts | 270° |
| 2026-04-14 07:52 | 55.89144 | 99.46581 | 34109 ft | 417 kts | 270° |
| 2026-04-14 07:53 | 55.88937 | 99.36326 | 34118 ft | 417 kts | 269° |
| 2026-04-14 07:53 | 55.88729 | 99.26015 | 34114 ft | 416 kts | 270° |
| 2026-04-14 07:54 | 55.88518 | 99.15703 | 34121 ft | 416 kts | 269° |
| 2026-04-14 07:54 | 55.88301 | 99.05399 | 34125 ft | 416 kts | 269° |
| 2026-04-14 07:55 | 55.88066 | 98.95086 | 34130 ft | 417 kts | 269° |
| 2026-04-14 07:55 | 55.87818 | 98.84781 | 34132 ft | 416 kts | 269° |
| 2026-04-14 07:56 | 55.87566 | 98.74482 | 34138 ft | 416 kts | 269° |
| 2026-04-14 07:56 | 55.87311 | 98.64172 | 34135 ft | 416 kts | 269° |
| 2026-04-14 07:57 | 55.87045 | 98.53877 | 34137 ft | 416 kts | 269° |
| 2026-04-14 07:57 | 55.86766 | 98.43575 | 34134 ft | 416 kts | 269° |
| 2026-04-14 07:58 | 55.86478 | 98.33281 | 34138 ft | 417 kts | 269° |
| 2026-04-14 07:58 | 55.86185 | 98.23044 | 34143 ft | 416 kts | 269° |
| 2026-04-14 07:59 | 55.85888 | 98.12755 | 34147 ft | 416 kts | 269° |
| 2026-04-14 07:59 | 55.85575 | 98.02462 | 34143 ft | 416 kts | 269° |
| 2026-04-14 08:00 | 55.85183 | 97.92171 | 34142 ft | 418 kts | 263° |
| 2026-04-14 08:00 | 55.83608 | 97.82182 | 34147 ft | 421 kts | 255° |
| 2026-04-14 08:01 | 55.81817 | 97.72276 | 34148 ft | 421 kts | 255° |
| 2026-04-14 08:01 | 55.80033 | 97.62368 | 34158 ft | 421 kts | 255° |
| 2026-04-14 08:02 | 55.78241 | 97.52460 | 34155 ft | 421 kts | 255° |
| 2026-04-14 08:02 | 55.76437 | 97.42567 | 34161 ft | 421 kts | 255° |
| 2026-04-14 08:03 | 55.74615 | 97.32678 | 34156 ft | 421 kts | 255° |
| 2026-04-14 08:03 | 55.72785 | 97.22802 | 34161 ft | 421 kts | 255° |
| 2026-04-14 08:04 | 55.70956 | 97.12923 | 34162 ft | 421 kts | 255° |
| 2026-04-14 08:04 | 55.69116 | 97.03065 | 34166 ft | 421 kts | 254° |
| 2026-04-14 08:05 | 55.67269 | 96.93212 | 34171 ft | 421 kts | 254° |
| 2026-04-14 08:05 | 55.65421 | 96.83435 | 34178 ft | 421 kts | 254° |
| 2026-04-14 08:06 | 55.63558 | 96.73599 | 34182 ft | 421 kts | 254° |
| 2026-04-14 08:06 | 55.61686 | 96.63773 | 34182 ft | 421 kts | 254° |
| 2026-04-14 08:07 | 55.59810 | 96.53959 | 34184 ft | 421 kts | 254° |
| 2026-04-14 08:07 | 55.57921 | 96.44154 | 34189 ft | 422 kts | 254° |
| 2026-04-14 08:08 | 55.56023 | 96.34349 | 34192 ft | 422 kts | 254° |
| 2026-04-14 08:08 | 55.54111 | 96.24554 | 34193 ft | 422 kts | 254° |
| 2026-04-14 08:09 | 55.52197 | 96.14773 | 34199 ft | 422 kts | 254° |
| 2026-04-14 08:09 | 55.50496 | 96.04901 | 34190 ft | 418 kts | 263° |
| 2026-04-14 08:10 | 55.50214 | 95.94798 | 34202 ft | 415 kts | 271° |
| 2026-04-14 08:10 | 55.50163 | 95.84603 | 34203 ft | 416 kts | 271° |
| 2026-04-14 08:11 | 55.50095 | 95.74407 | 34211 ft | 416 kts | 271° |
| 2026-04-14 08:11 | 55.50026 | 95.64204 | 34218 ft | 416 kts | 271° |
| 2026-04-14 08:12 | 55.49948 | 95.54003 | 34215 ft | 416 kts | 271° |
| 2026-04-14 08:12 | 55.49861 | 95.43799 | 34213 ft | 416 kts | 271° |
| 2026-04-14 08:13 | 55.49764 | 95.33589 | 34223 ft | 416 kts | 271° |
| 2026-04-14 08:13 | 55.49664 | 95.23386 | 34230 ft | 417 kts | 271° |
| 2026-04-14 08:14 | 55.49557 | 95.13164 | 34232 ft | 417 kts | 271° |
| 2026-04-14 08:14 | 55.49431 | 95.02955 | 34232 ft | 417 kts | 271° |
| 2026-04-14 08:15 | 55.49303 | 94.92802 | 34230 ft | 417 kts | 271° |
| 2026-04-14 08:15 | 55.49164 | 94.82590 | 34228 ft | 417 kts | 270° |
| 2026-04-14 08:16 | 55.49016 | 94.72372 | 34234 ft | 417 kts | 270° |
| 2026-04-14 08:16 | 55.48861 | 94.62158 | 34228 ft | 416 kts | 270° |
| 2026-04-14 08:17 | 55.48699 | 94.51959 | 34226 ft | 416 kts | 270° |
| 2026-04-14 08:17 | 55.48522 | 94.41752 | 34225 ft | 416 kts | 270° |
| 2026-04-14 08:18 | 55.48343 | 94.31549 | 34223 ft | 416 kts | 270° |
| 2026-04-14 08:18 | 55.48155 | 94.21339 | 34224 ft | 417 kts | 270° |
| 2026-04-14 08:19 | 55.47957 | 94.11138 | 34221 ft | 417 kts | 270° |
| 2026-04-14 08:19 | 55.47757 | 94.00930 | 34225 ft | 417 kts | 270° |
| 2026-04-14 08:20 | 55.47549 | 93.90722 | 34226 ft | 417 kts | 270° |
| 2026-04-14 08:20 | 55.47324 | 93.80577 | 34231 ft | 417 kts | 270° |
| 2026-04-14 08:21 | 55.47091 | 93.70372 | 34234 ft | 417 kts | 270° |
| 2026-04-14 08:21 | 55.46856 | 93.60173 | 34233 ft | 416 kts | 270° |
| 2026-04-14 08:22 | 55.46603 | 93.49971 | 34235 ft | 417 kts | 270° |
| 2026-04-14 08:22 | 55.46347 | 93.39765 | 34233 ft | 417 kts | 270° |
| 2026-04-14 08:23 | 55.46082 | 93.29576 | 34234 ft | 417 kts | 270° |
| 2026-04-14 08:23 | 55.45809 | 93.19375 | 34232 ft | 416 kts | 270° |
| 2026-04-14 08:24 | 55.45527 | 93.09191 | 34232 ft | 416 kts | 270° |
| 2026-04-14 08:24 | 55.45234 | 92.99008 | 34232 ft | 416 kts | 270° |
| 2026-04-14 08:25 | 55.44933 | 92.88823 | 34228 ft | 416 kts | 270° |
| 2026-04-14 08:25 | 55.44636 | 92.78710 | 34223 ft | 416 kts | 270° |
| 2026-04-14 08:26 | 55.44324 | 92.68527 | 34228 ft | 416 kts | 270° |
| 2026-04-14 08:26 | 55.43993 | 92.58342 | 34228 ft | 417 kts | 270° |
| 2026-04-14 08:27 | 55.43832 | 92.48164 | 34228 ft | 414 kts | 278° |
| 2026-04-14 08:27 | 55.44474 | 92.38114 | 34233 ft | 413 kts | 278° |
| 2026-04-14 08:28 | 55.45097 | 92.28040 | 34233 ft | 414 kts | 278° |
| 2026-04-14 08:28 | 55.45711 | 92.17962 | 34233 ft | 414 kts | 278° |
| 2026-04-14 08:29 | 55.46324 | 92.07884 | 34236 ft | 414 kts | 278° |
| 2026-04-14 08:29 | 55.46927 | 91.97798 | 34243 ft | 414 kts | 278° |
| 2026-04-14 08:30 | 55.47518 | 91.87706 | 34246 ft | 414 kts | 278° |
| 2026-04-14 08:30 | 55.48106 | 91.77607 | 34259 ft | 414 kts | 278° |
| 2026-04-14 08:31 | 55.48588 | 91.69204 | 34258 ft | 414 kts | 278° |
| 2026-04-14 08:31 | 55.49535 | 91.52411 | 34268 ft | 414 kts | 278° |
| 2026-04-14 08:32 | 55.50000 | 91.43942 | 34271 ft | 414 kts | 278° |
| 2026-04-14 08:32 | 55.50550 | 91.33841 | 34273 ft | 414 kts | 278° |
| 2026-04-14 08:33 | 55.51087 | 91.23734 | 34282 ft | 414 kts | 278° |
| 2026-04-14 08:33 | 55.51611 | 91.13702 | 34284 ft | 414 kts | 277° |
| 2026-04-14 08:34 | 55.51479 | 91.03510 | 34286 ft | 417 kts | 270° |
| 2026-04-14 08:34 | 55.51164 | 90.93304 | 34288 ft | 416 kts | 270° |
| 2026-04-14 08:35 | 55.50846 | 90.83098 | 34293 ft | 416 kts | 270° |
| 2026-04-14 08:35 | 55.50525 | 90.72905 | 34294 ft | 416 kts | 270° |
| 2026-04-14 08:36 | 55.50194 | 90.62716 | 34305 ft | 416 kts | 270° |
| 2026-04-14 08:36 | 55.49851 | 90.52526 | 34308 ft | 416 kts | 270° |
| 2026-04-14 08:37 | 55.49499 | 90.42342 | 34315 ft | 416 kts | 270° |
| 2026-04-14 08:37 | 55.49142 | 90.32168 | 34307 ft | 416 kts | 270° |
| 2026-04-14 08:38 | 55.48769 | 90.22066 | 34305 ft | 416 kts | 270° |
| 2026-04-14 08:38 | 55.48391 | 90.11898 | 34308 ft | 415 kts | 270° |
| 2026-04-14 08:39 | 55.48012 | 90.01736 | 34308 ft | 415 kts | 270° |
| 2026-04-14 08:39 | 55.47619 | 89.91578 | 34309 ft | 415 kts | 270° |
| 2026-04-14 08:40 | 55.47219 | 89.81426 | 34308 ft | 415 kts | 270° |
| 2026-04-14 08:40 | 55.46809 | 89.71272 | 34308 ft | 415 kts | 270° |
| 2026-04-14 08:41 | 55.46384 | 89.61124 | 34311 ft | 415 kts | 269° |
| 2026-04-14 08:41 | 55.45956 | 89.50993 | 34310 ft | 415 kts | 270° |
| 2026-04-14 08:42 | 55.45526 | 89.40849 | 34311 ft | 415 kts | 269° |
| 2026-04-14 08:42 | 55.45085 | 89.30717 | 34306 ft | 415 kts | 269° |
| 2026-04-14 08:43 | 55.44628 | 89.20587 | 34310 ft | 415 kts | 269° |
| 2026-04-14 08:43 | 55.44170 | 89.10530 | 34305 ft | 415 kts | 269° |
| 2026-04-14 08:44 | 55.43704 | 89.00415 | 34305 ft | 414 kts | 269° |
| 2026-04-14 08:44 | 55.43220 | 88.90302 | 34304 ft | 414 kts | 269° |
| 2026-04-14 08:45 | 55.42741 | 88.80188 | 34299 ft | 414 kts | 269° |
| 2026-04-14 08:45 | 55.42273 | 88.70090 | 34297 ft | 414 kts | 269° |
| 2026-04-14 08:46 | 55.41788 | 88.59994 | 34298 ft | 414 kts | 269° |
| 2026-04-14 08:46 | 55.41292 | 88.49895 | 34299 ft | 414 kts | 269° |
| 2026-04-14 08:47 | 55.40781 | 88.39814 | 34297 ft | 414 kts | 269° |
| 2026-04-14 08:47 | 55.40265 | 88.29800 | 34294 ft | 414 kts | 269° |
| 2026-04-14 08:48 | 55.39737 | 88.19719 | 34294 ft | 414 kts | 269° |
| 2026-04-14 08:48 | 55.39206 | 88.09643 | 34282 ft | 413 kts | 269° |
| 2026-04-14 08:49 | 55.38670 | 87.99573 | 34296 ft | 414 kts | 268° |
| 2026-04-14 08:49 | 55.38118 | 87.89504 | 34296 ft | 414 kts | 268° |
| 2026-04-14 08:50 | 55.37566 | 87.79471 | 34294 ft | 413 kts | 268° |
| 2026-04-14 08:50 | 55.37001 | 87.69385 | 34287 ft | 413 kts | 268° |
| 2026-04-14 08:51 | 55.36430 | 87.59392 | 34287 ft | 413 kts | 268° |
| 2026-04-14 08:51 | 55.35849 | 87.49344 | 34285 ft | 413 kts | 268° |
| 2026-04-14 08:52 | 55.35268 | 87.39319 | 34284 ft | 413 kts | 268° |
| 2026-04-14 08:52 | 55.34679 | 87.29250 | 34288 ft | 413 kts | 268° |
| 2026-04-14 08:53 | 55.34079 | 87.19209 | 34283 ft | 413 kts | 268° |
| 2026-04-14 08:53 | 55.33469 | 87.09178 | 34288 ft | 413 kts | 268° |
| 2026-04-14 08:54 | 55.32851 | 86.99142 | 34285 ft | 413 kts | 268° |
| 2026-04-14 08:54 | 55.32231 | 86.89105 | 34289 ft | 413 kts | 268° |
| 2026-04-14 08:55 | 55.31595 | 86.79082 | 34286 ft | 413 kts | 268° |
| 2026-04-14 08:55 | 55.31276 | 86.74059 | 34089 ft | 414 kts | 268° |
| 2026-04-14 08:55 | 55.30953 | 86.69046 | 33803 ft | 413 kts | 268° |
| 2026-04-14 08:56 | 55.30628 | 86.64049 | 33526 ft | 412 kts | 268° |
| 2026-04-14 08:56 | 55.30302 | 86.59056 | 33257 ft | 412 kts | 268° |
| 2026-04-14 08:56 | 55.29979 | 86.54131 | 32974 ft | 411 kts | 268° |
| 2026-04-14 08:56 | 55.29651 | 86.49149 | 32702 ft | 411 kts | 268° |
| 2026-04-14 08:57 | 55.29319 | 86.44112 | 32427 ft | 410 kts | 268° |
| 2026-04-14 08:57 | 55.28995 | 86.39215 | 32165 ft | 409 kts | 268° |
| 2026-04-14 08:57 | 55.28665 | 86.34254 | 31892 ft | 409 kts | 268° |
| 2026-04-14 08:57 | 55.28334 | 86.29305 | 31627 ft | 408 kts | 268° |
| 2026-04-14 08:58 | 55.27999 | 86.24364 | 31373 ft | 408 kts | 268° |
| 2026-04-14 08:58 | 55.27660 | 86.19435 | 31122 ft | 407 kts | 268° |
| 2026-04-14 08:58 | 55.27317 | 86.14513 | 30860 ft | 407 kts | 268° |
| 2026-04-14 08:58 | 55.26976 | 86.09595 | 30610 ft | 406 kts | 268° |
| 2026-04-14 08:59 | 55.26688 | 86.04688 | 30356 ft | 404 kts | 270° |
| 2026-04-14 08:59 | 55.26451 | 85.99782 | 30053 ft | 403 kts | 270° |
| 2026-04-14 08:59 | 55.26241 | 85.94878 | 29754 ft | 404 kts | 270° |
| 2026-04-14 08:59 | 55.26037 | 85.89970 | 29458 ft | 405 kts | 270° |
| 2026-04-14 09:00 | 55.25824 | 85.85045 | 29164 ft | 406 kts | 270° |
| 2026-04-14 09:00 | 55.25596 | 85.80109 | 28872 ft | 407 kts | 270° |
| 2026-04-14 09:00 | 55.25354 | 85.75161 | 28582 ft | 408 kts | 270° |
| 2026-04-14 09:00 | 55.25101 | 85.70205 | 28297 ft | 409 kts | 269° |
| 2026-04-14 09:01 | 55.24842 | 85.65242 | 28013 ft | 410 kts | 269° |
| 2026-04-14 09:01 | 55.24583 | 85.60262 | 27715 ft | 411 kts | 269° |
| 2026-04-14 09:01 | 55.24324 | 85.55275 | 27450 ft | 411 kts | 269° |
| 2026-04-14 09:01 | 55.24066 | 85.50305 | 27173 ft | 410 kts | 269° |
| 2026-04-14 09:02 | 55.23808 | 85.45340 | 26902 ft | 408 kts | 269° |
| 2026-04-14 09:02 | 55.23554 | 85.40397 | 26637 ft | 407 kts | 269° |
| 2026-04-14 09:02 | 55.23299 | 85.35457 | 26374 ft | 406 kts | 269° |
| 2026-04-14 09:02 | 55.23041 | 85.30535 | 26107 ft | 405 kts | 269° |
| 2026-04-14 09:03 | 55.22780 | 85.25638 | 25843 ft | 404 kts | 269° |
| 2026-04-14 09:03 | 55.22518 | 85.20742 | 25590 ft | 403 kts | 269° |
| 2026-04-14 09:03 | 55.22256 | 85.15931 | 25340 ft | 402 kts | 269° |
| 2026-04-14 09:03 | 55.21988 | 85.11071 | 25086 ft | 400 kts | 269° |
| 2026-04-14 09:04 | 55.21719 | 85.06227 | 24830 ft | 399 kts | 269° |
| 2026-04-14 09:04 | 55.21450 | 85.01409 | 24442 ft | 395 kts | 269° |
| 2026-04-14 09:04 | 55.21181 | 84.96634 | 23836 ft | 392 kts | 269° |
| 2026-04-14 09:04 | 55.20916 | 84.91910 | 23184 ft | 388 kts | 269° |
| 2026-04-14 09:05 | 55.20651 | 84.87249 | 22626 ft | 382 kts | 269° |
| 2026-04-14 09:05 | 55.20384 | 84.82657 | 22070 ft | 376 kts | 268° |
| 2026-04-14 09:05 | 55.20116 | 84.78139 | 21552 ft | 370 kts | 268° |
| 2026-04-14 09:05 | 55.19852 | 84.73698 | 21034 ft | 365 kts | 268° |
| 2026-04-14 09:06 | 55.19510 | 84.69314 | 20536 ft | 362 kts | 262° |
| 2026-04-14 09:06 | 55.18839 | 84.65074 | 20054 ft | 360 kts | 258° |
| 2026-04-14 09:06 | 55.18121 | 84.60911 | 19582 ft | 355 kts | 258° |
| 2026-04-14 09:06 | 55.17412 | 84.56810 | 19123 ft | 350 kts | 258° |
| 2026-04-14 09:07 | 55.16709 | 84.52741 | 18690 ft | 348 kts | 258° |
| 2026-04-14 09:07 | 55.16012 | 84.48699 | 18219 ft | 346 kts | 258° |
| 2026-04-14 09:07 | 55.15318 | 84.44681 | 17798 ft | 344 kts | 258° |
| 2026-04-14 09:07 | 55.14627 | 84.40687 | 17376 ft | 342 kts | 258° |
| 2026-04-14 09:08 | 55.13946 | 84.36768 | 16958 ft | 341 kts | 257° |
| 2026-04-14 09:08 | 55.13259 | 84.32821 | 16543 ft | 339 kts | 257° |
| 2026-04-14 09:08 | 55.12572 | 84.28890 | 16119 ft | 337 kts | 257° |
| 2026-04-14 09:08 | 55.11889 | 84.24993 | 15687 ft | 335 kts | 257° |
| 2026-04-14 09:09 | 55.11208 | 84.21111 | 15261 ft | 333 kts | 257° |
| 2026-04-14 09:09 | 55.10529 | 84.17249 | 14791 ft | 332 kts | 257° |
| 2026-04-14 09:09 | 55.09849 | 84.13404 | 14361 ft | 330 kts | 257° |
| 2026-04-14 09:09 | 55.09172 | 84.09588 | 13872 ft | 329 kts | 257° |
| 2026-04-14 09:10 | 55.08497 | 84.05792 | 13394 ft | 326 kts | 256° |
| 2026-04-14 09:10 | 55.07947 | 84.01980 | 12924 ft | 321 kts | 264° |
| 2026-04-14 09:10 | 55.07701 | 83.98125 | 12461 ft | 319 kts | 267° |
| 2026-04-14 09:10 | 55.07473 | 83.94284 | 11977 ft | 318 kts | 267° |
| 2026-04-14 09:11 | 55.07242 | 83.90460 | 11507 ft | 316 kts | 266° |
| 2026-04-14 09:11 | 55.07010 | 83.86670 | 11174 ft | 310 kts | 266° |
| 2026-04-14 09:11 | 55.06781 | 83.83005 | 11041 ft | 298 kts | 266° |
| 2026-04-14 09:11 | 55.06557 | 83.79479 | 10918 ft | 286 kts | 266° |
| 2026-04-14 09:12 | 55.06341 | 83.76093 | 10787 ft | 276 kts | 266° |
| 2026-04-14 09:12 | 55.06131 | 83.72807 | 10547 ft | 270 kts | 266° |
| 2026-04-14 09:12 | 55.05930 | 83.69618 | 10296 ft | 267 kts | 266° |
| 2026-04-14 09:12 | 55.05727 | 83.66407 | 10144 ft | 266 kts | 266° |
| 2026-04-14 09:13 | 55.05524 | 83.63198 | 10004 ft | 266 kts | 266° |
| 2026-04-14 09:13 | 55.05321 | 83.59999 | 9864 ft | 265 kts | 266° |
| 2026-04-14 09:13 | 55.05117 | 83.56801 | 9726 ft | 265 kts | 266° |
| 2026-04-14 09:13 | 55.04913 | 83.53618 | 9554 ft | 264 kts | 266° |
| 2026-04-14 09:14 | 55.04709 | 83.50476 | 9362 ft | 256 kts | 266° |
| 2026-04-14 09:14 | 55.04513 | 83.47495 | 9211 ft | 239 kts | 266° |
| 2026-04-14 09:14 | 55.04325 | 83.44686 | 8922 ft | 229 kts | 266° |
| 2026-04-14 09:14 | 55.04143 | 83.41947 | 8503 ft | 226 kts | 266° |
| 2026-04-14 09:15 | 55.03966 | 83.39239 | 8053 ft | 224 kts | 265° |
| 2026-04-14 09:15 | 55.03789 | 83.36547 | 7686 ft | 223 kts | 265° |
| 2026-04-14 09:15 | 55.03613 | 83.33864 | 7390 ft | 222 kts | 265° |
| 2026-04-14 09:15 | 55.03557 | 83.31188 | 7050 ft | 221 kts | 271° |
| 2026-04-14 09:16 | 55.03553 | 83.28501 | 6687 ft | 222 kts | 271° |
| 2026-04-14 09:16 | 55.03548 | 83.25785 | 6299 ft | 223 kts | 270° |
| 2026-04-14 09:16 | 55.03539 | 83.23120 | 6104 ft | 216 kts | 270° |
| 2026-04-14 09:16 | 55.03530 | 83.20561 | 5936 ft | 205 kts | 270° |
| 2026-04-14 09:17 | 55.03521 | 83.18107 | 5455 ft | 201 kts | 270° |
| 2026-04-14 09:17 | 55.03510 | 83.15736 | 5034 ft | 195 kts | 269° |
| 2026-04-14 09:17 | 55.03500 | 83.13386 | 4526 ft | 194 kts | 269° |
| 2026-04-14 09:17 | 55.03488 | 83.11043 | 4108 ft | 193 kts | 269° |
| 2026-04-14 09:18 | 55.03475 | 83.08709 | 3768 ft | 193 kts | 269° |
| 2026-04-14 09:18 | 55.03463 | 83.06387 | 3484 ft | 189 kts | 269° |
| 2026-04-14 09:18 | 55.03454 | 83.04192 | 3260 ft | 175 kts | 269° |
| 2026-04-14 09:18 | 55.03445 | 83.02097 | 3202 ft | 172 kts | 269° |
| 2026-04-14 09:19 | 55.03432 | 83.00024 | 3129 ft | 170 kts | 269° |
| 2026-04-14 09:19 | 55.03420 | 82.98037 | 3050 ft | 159 kts | 269° |
| 2026-04-14 09:19 | 55.03410 | 82.96174 | 2986 ft | 154 kts | 268° |
| 2026-04-14 09:19 | 55.03400 | 82.94320 | 2921 ft | 152 kts | 269° |
| 2026-04-14 09:20 | 55.03390 | 82.92475 | 2849 ft | 152 kts | 269° |
| 2026-04-14 09:20 | 55.03377 | 82.90636 | 2780 ft | 152 kts | 267° |
| 2026-04-14 09:20 | 55.03299 | 82.88802 | 2726 ft | 151 kts | 263° |
| 2026-04-14 09:20 | 55.03175 | 82.86979 | 2685 ft | 150 kts | 262° |
| 2026-04-14 09:21 | 55.03031 | 82.85167 | 2523 ft | 150 kts | 261° |
| 2026-04-14 09:21 | 55.02882 | 82.83419 | 2314 ft | 142 kts | 261° |
| 2026-04-14 09:21 | 55.02736 | 82.81739 | 2128 ft | 140 kts | 261° |
| 2026-04-14 09:21 | 55.02591 | 82.80090 | 1925 ft | 136 kts | 261° |
| 2026-04-14 09:22 | 55.02448 | 82.78476 | 1733 ft | 134 kts | 261° |
| 2026-04-14 09:22 | 55.02305 | 82.76869 | 1550 ft | 134 kts | 261° |
| 2026-04-14 09:22 | 55.02161 | 82.75259 | 1328 ft | 134 kts | 261° |
| 2026-04-14 09:22 | 55.02017 | 82.73657 | 1119 ft | 134 kts | 261° |
| 2026-04-14 09:23 | 55.01874 | 82.72059 | 921 ft | 134 kts | 261° |
| 2026-04-14 09:23 | 55.01730 | 82.70465 | 724 ft | 133 kts | 262° |
| 2026-04-14 09:23 | 55.01583 | 82.68877 | 549 ft | 133 kts | 263° |
| 2026-04-14 09:23 | 55.01447 | 82.67307 | 389 ft | 132 kts | 261° |
| 2026-04-14 09:24 | 55.01321 | 82.65866 | 373 ft | 104 kts | 264° |
| 2026-04-14 09:24 | 55.01243 | 82.64917 | 372 ft | 54 kts | 262° |
| 2026-04-14 09:24 | 55.01205 | 82.64545 | 372 ft | 15 kts | 258° |
| 2026-04-14 09:24 | 55.01188 | 82.64406 | 373 ft | 18 kts | 258° |
| 2026-04-14 09:25 | 55.01163 | 82.64174 | 375 ft | 19 kts | 260° |
| 2026-04-14 09:25 | 55.01132 | 82.64003 | 375 ft | 13 kts | 217° |
| 2026-04-14 09:25 | 55.01053 | 82.64001 | 374 ft | 12 kts | 171° |
| 2026-04-14 09:25 | 55.00983 | 82.64054 | 373 ft | 10 kts | 115° |
| 2026-04-14 09:26 | 55.00978 | 82.64173 | 373 ft | 9 kts | 93° |
| 2026-04-14 09:26 | 55.00967 | 82.64276 | 373 ft | 8 kts | 103° |
| 2026-04-14 09:26 | 55.00956 | 82.64365 | 373 ft | 7 kts | 102° |
| 2026-04-14 09:26 | 55.00947 | 82.64441 | 373 ft | 6 kts | 102° |
| 2026-04-14 09:27 | 55.00936 | 82.64522 | 373 ft | 8 kts | 102° |
| 2026-04-14 09:27 | 55.00926 | 82.64606 | 373 ft | 7 kts | 104° |
| 2026-04-14 09:27 | 55.00914 | 82.64681 | 373 ft | 9 kts | 103° |
| 2026-04-14 09:27 | 55.00893 | 82.64837 | 373 ft | 17 kts | 101° |
| 2026-04-14 09:28 | 55.00878 | 82.64968 | 373 ft | 16 kts | 101° |
| 2026-04-14 09:28 | 55.00883 | 82.65214 | 373 ft | 15 kts | 86° |
| 2026-04-14 09:28 | 55.00892 | 82.65383 | 373 ft | 13 kts | 79° |
| 2026-04-14 09:28 | 55.00908 | 82.65537 | 373 ft | 12 kts | 82° |
| 2026-04-14 09:29 | 55.00920 | 82.65680 | 373 ft | 11 kts | 80° |
| 2026-04-14 09:29 | 55.00932 | 82.65806 | 373 ft | 10 kts | 80° |
| 2026-04-14 09:29 | 55.00943 | 82.65923 | 373 ft | 11 kts | 81° |
| 2026-04-14 09:29 | 55.00955 | 82.66053 | 373 ft | 10 kts | 81° |
| 2026-04-14 09:30 | 55.00967 | 82.66129 | 373 ft | 9 kts | 67° |
| 2026-04-14 09:30 | 55.00990 | 82.66227 | 373 ft | 8 kts | 70° |
| 2026-04-14 09:30 | 55.01007 | 82.66313 | 373 ft | 7 kts | 70° |
| 2026-04-14 09:30 | 55.01024 | 82.66386 | 373 ft | 7 kts | 68° |
| 2026-04-14 09:31 | 55.01048 | 82.66495 | 373 ft | 10 kts | 69° |
| 2026-04-14 09:31 | 55.01072 | 82.66598 | 373 ft | 9 kts | 65° |
| 2026-04-14 09:31 | 55.01090 | 82.66687 | 373 ft | 7 kts | 85° |
| 2026-04-14 09:31 | 55.01069 | 82.66744 | 373 ft | 5 kts | 161° |
| 2026-04-14 09:32 | 55.01039 | 82.66760 | 373 ft | 4 kts | 167° |
| 2026-04-14 09:32 | 55.01033 | 82.66762 | 373 ft | 0 kts | 168° |